Time;durP1;ratioP1;P1;durP2;ratioP2;P2;SDS_P1;SDS_P2;PMS_P1;PMS_P2;Temp;Humidity;BMP_temperature;BMP_pressure;BME280_temperature;BME280_humidity;BME280_pressure;Samples;Min_cycle;Max_cycle;Signal;HPM_P1;HPM_P2
2022/01/01 00:02:02;;;;;;;229.23;89.80;;;5.10;76.80;;;;;;5025650;28;20025;-81
2022/01/01 00:04:28;;;;;;;179.67;103.20;;;5.20;77.10;;;;;;5021838;28;20489;-81
2022/01/01 00:06:54;;;;;;;180.17;90.60;;;5.20;76.90;;;;;;5027383;28;20025;-81
2022/01/01 00:09:20;;;;;;;159.03;74.43;;;5.30;76.80;;;;;;5019430;28;20080;-81
2022/01/01 00:11:46;;;;;;;273.73;77.10;;;5.20;76.90;;;;;;5021935;28;20104;-81
2022/01/01 00:14:11;;;;;;;178.70;76.10;;;5.20;76.40;;;;;;5027942;28;20468;-81
2022/01/01 00:16:37;;;;;;;127.53;78.40;;;5.10;76.40;;;;;;5041576;28;20444;-81
2022/01/01 00:19:03;;;;;;;133.60;74.60;;;5.20;76.60;;;;;;5045947;28;20017;-81
2022/01/01 00:21:28;;;;;;;147.60;72.03;;;5.20;76.60;;;;;;5043975;28;20033;-81
2022/01/01 00:23:54;;;;;;;161.57;73.00;;;5.20;76.30;;;;;;5041380;28;20427;-81
2022/01/01 00:26:20;;;;;;;155.83;74.53;;;5.20;76.60;;;;;;5035503;28;20037;-81
2022/01/01 00:28:46;;;;;;;168.07;76.03;;;5.20;76.50;;;;;;5049430;28;20384;-81
2022/01/01 00:31:12;;;;;;;158.80;75.27;;;5.20;76.70;;;;;;5050749;28;20028;-81
2022/01/01 00:33:38;;;;;;;164.73;75.53;;;5.20;76.80;;;;;;5039343;28;20021;-81
2022/01/01 00:36:04;;;;;;;196.63;84.87;;;5.30;76.80;;;;;;5045765;28;20035;-81
2022/01/01 00:38:30;;;;;;;302.23;88.17;;;5.30;76.60;;;;;;5021221;28;20142;-81
2022/01/01 00:40:56;;;;;;;213.70;81.00;;;5.30;76.80;;;;;;5036642;28;20515;-81
2022/01/01 00:43:21;;;;;;;170.80;81.10;;;5.30;76.90;;;;;;5038731;28;20111;-81
2022/01/01 00:45:47;;;;;;;204.33;74.57;;;5.30;77.00;;;;;;5046312;28;20118;-81
2022/01/01 00:48:13;;;;;;;178.50;81.83;;;5.30;76.80;;;;;;5051317;28;20075;-81
2022/01/01 00:50:39;;;;;;;168.10;69.90;;;5.40;76.90;;;;;;5048989;28;20032;-81
2022/01/01 00:53:05;;;;;;;176.50;68.13;;;5.30;76.80;;;;;;5037126;28;20021;-81
2022/01/01 00:55:31;;;;;;;206.93;71.23;;;5.30;77.10;;;;;;5055339;28;20024;-81
2022/01/01 00:57:56;;;;;;;282.53;64.80;;;5.30;76.70;;;;;;5052596;28;20025;-81
2022/01/01 01:00:22;;;;;;;117.83;59.87;;;5.10;76.60;;;;;;5050401;28;20029;-81
2022/01/01 01:02:48;;;;;;;171.40;54.80;;;5.10;77.30;;;;;;5050737;28;20472;-81
2022/01/01 01:05:13;;;;;;;149.60;61.10;;;5.10;77.60;;;;;;5056475;28;20446;-81
2022/01/01 01:07:39;;;;;;;183.63;60.43;;;5.30;77.50;;;;;;5054136;28;20033;-81
2022/01/01 01:10:05;;;;;;;214.80;63.83;;;5.30;76.90;;;;;;5052787;28;20107;-81
2022/01/01 01:12:42;;;;;;;159.87;69.70;;;5.20;76.90;;;;;;5053559;28;20499;-81
2022/01/01 01:15:16;;;;;;;154.63;76.83;;;5.10;77.10;;;;;;5051984;28;20057;-81
2022/01/01 01:17:43;;;;;;;148.80;80.87;;;5.10;77.10;;;;;;5046665;28;20471;-81
2022/01/01 01:20:09;;;;;;;204.27;86.63;;;5.20;77.30;;;;;;5053476;28;20116;-81
2022/01/01 01:22:35;;;;;;;220.43;92.10;;;5.20;77.20;;;;;;5054806;28;20060;-81
2022/01/01 01:25:01;;;;;;;194.23;95.53;;;5.20;77.20;;;;;;5048001;28;20450;-81
2022/01/01 01:27:28;;;;;;;209.87;93.57;;;5.20;77.30;;;;;;5043713;28;20025;-81
2022/01/01 01:29:56;;;;;;;363.50;95.37;;;5.20;77.30;;;;;;5053059;28;20020;-81
2022/01/01 01:32:21;;;;;;;187.87;90.60;;;5.30;77.10;;;;;;5046482;28;20427;-80
2022/01/01 01:34:47;;;;;;;205.40;91.83;;;5.20;77.50;;;;;;5047920;28;20071;-81
2022/01/01 01:37:13;;;;;;;148.23;88.13;;;5.30;77.60;;;;;;5046249;28;20484;-81
2022/01/01 01:39:38;;;;;;;159.80;87.50;;;5.30;77.60;;;;;;5055406;28;20025;-81
2022/01/01 01:42:04;;;;;;;153.67;90.20;;;5.40;77.50;;;;;;5036576;28;20036;-81
2022/01/01 01:44:35;;;;;;;147.87;90.17;;;5.40;77.40;;;;;;5055086;28;20040;-81
2022/01/01 01:47:03;;;;;;;144.47;88.73;;;5.40;77.40;;;;;;5050915;28;20357;-81
2022/01/01 01:49:29;;;;;;;168.53;90.03;;;5.50;77.30;;;;;;5045796;28;20048;-81
2022/01/01 01:51:56;;;;;;;151.47;91.93;;;5.50;77.20;;;;;;5049788;28;20439;-80
2022/01/01 01:54:22;;;;;;;160.30;89.20;;;5.50;77.20;;;;;;5055089;28;20029;-81
2022/01/01 01:56:48;;;;;;;180.63;91.10;;;5.50;77.10;;;;;;5056391;28;20032;-81
2022/01/01 01:59:15;;;;;;;138.40;83.03;;;5.50;77.00;;;;;;5057247;28;20025;-81
2022/01/01 02:01:41;;;;;;;120.33;67.63;;;5.40;77.10;;;;;;5046819;28;20029;-81
2022/01/01 02:04:07;;;;;;;130.30;66.07;;;5.50;77.20;;;;;;5052638;28;20025;-81
2022/01/01 02:06:34;;;;;;;119.80;58.80;;;5.50;77.40;;;;;;5044656;28;20035;-81
2022/01/01 02:09:00;;;;;;;131.27;64.17;;;5.40;77.70;;;;;;5057211;28;20510;-81
2022/01/01 02:11:27;;;;;;;133.03;58.80;;;5.50;77.70;;;;;;5049617;28;20033;-81
2022/01/01 02:18:47;;;;;;;119.70;49.60;;;5.50;77.30;;;;;;5054580;28;20103;-81
2022/01/01 02:21:14;;;;;;;75.23;51.10;;;5.50;77.30;;;;;;5049694;28;20028;-81
2022/01/01 02:23:43;;;;;;;81.03;51.53;;;5.50;77.10;;;;;;5049222;28;20033;-81
2022/01/01 02:26:12;;;;;;;86.63;52.43;;;5.40;76.90;;;;;;5044168;28;20021;-81
2022/01/01 02:28:44;;;;;;;70.70;50.00;;;5.40;76.70;;;;;;5054898;28;20028;-81
2022/01/01 02:31:10;;;;;;;60.70;44.28;;;5.40;76.70;;;;;;5053726;28;20067;-81
2022/01/01 02:33:37;;;;;;;63.47;47.73;;;5.30;76.70;;;;;;5046118;28;20053;-81
2022/01/01 02:36:04;;;;;;;71.03;46.43;;;5.40;76.60;;;;;;5052857;28;20013;-81
2022/01/01 02:38:32;;;;;;;83.33;46.60;;;5.40;76.40;;;;;;5049792;28;20028;-81
2022/01/01 02:40:58;;;;;;;89.17;48.20;;;5.30;76.30;;;;;;5040384;28;20095;-81
2022/01/01 02:43:25;;;;;;;114.43;49.57;;;5.30;76.30;;;;;;5039581;28;20029;-81
2022/01/01 02:45:51;;;;;;;140.90;48.60;;;5.30;76.60;;;;;;5042010;28;20033;-81
2022/01/01 02:48:17;;;;;;;111.37;53.60;;;5.30;76.50;;;;;;5047448;28;20523;-81
2022/01/01 02:50:43;;;;;;;201.30;54.77;;;5.20;76.30;;;;;;5050380;28;20060;-81
2022/01/01 02:53:12;;;;;;;133.27;53.57;;;5.10;76.20;;;;;;5042225;28;20412;-81
2022/01/01 02:55:39;;;;;;;136.00;55.43;;;5.10;76.30;;;;;;5048025;28;20827;-80
2022/01/01 02:58:05;;;;;;;176.07;55.30;;;5.00;76.60;;;;;;5050251;28;20077;-81
2022/01/01 03:00:31;;;;;;;210.80;61.20;;;5.00;76.80;;;;;;5051999;28;20372;-81
2022/01/01 03:02:57;;;;;;;185.50;63.33;;;5.10;77.00;;;;;;5051664;28;20032;-80
2022/01/01 03:05:23;;;;;;;208.67;64.93;;;5.10;76.90;;;;;;5051279;28;20110;-80
2022/01/01 03:07:48;;;;;;;140.93;65.73;;;5.10;76.90;;;;;;5048802;28;20064;-81
2022/01/01 03:10:14;;;;;;;122.43;60.17;;;5.10;77.10;;;;;;5045167;28;20029;-81
2022/01/01 03:12:40;;;;;;;129.10;61.63;;;5.00;77.10;;;;;;5051443;28;20033;-80
2022/01/01 03:15:06;;;;;;;123.07;61.97;;;5.10;77.20;;;;;;5037737;28;20045;-81
2022/01/01 03:17:32;;;;;;;214.57;67.40;;;5.10;77.30;;;;;;5045563;28;20317;-80
2022/01/01 03:19:59;;;;;;;429.30;76.57;;;5.10;77.30;;;;;;5048228;28;20029;-80
2022/01/01 03:22:25;;;;;;;168.83;58.13;;;5.00;77.40;;;;;;5040217;28;20026;-81
2022/01/01 03:24:51;;;;;;;137.70;53.90;;;5.00;77.70;;;;;;5043582;28;20043;-80
2022/01/01 03:27:16;;;;;;;130.83;59.67;;;5.00;77.70;;;;;;5046471;28;20119;-81
2022/01/01 03:29:42;;;;;;;184.03;56.20;;;5.10;77.50;;;;;;5044841;28;20025;-81
2022/01/01 03:32:10;;;;;;;161.27;55.90;;;5.10;77.40;;;;;;5045353;28;20388;-81
2022/01/01 03:34:36;;;;;;;143.77;58.60;;;5.00;77.30;;;;;;5045422;28;20122;-81
2022/01/01 03:37:02;;;;;;;164.40;57.33;;;5.00;77.30;;;;;;5049380;28;20025;-81
2022/01/01 03:39:28;;;;;;;174.33;55.00;;;5.00;77.40;;;;;;5038838;28;20025;-81
2022/01/01 03:41:54;;;;;;;150.00;54.03;;;4.90;77.30;;;;;;5044855;28;20032;-81
2022/01/01 03:44:20;;;;;;;119.30;52.53;;;4.90;77.60;;;;;;5048182;28;20407;-81
2022/01/01 03:46:46;;;;;;;116.73;52.63;;;4.90;77.70;;;;;;5053987;28;20032;-81
2022/01/01 03:49:12;;;;;;;130.53;52.20;;;4.90;77.60;;;;;;5045934;28;20033;-81
2022/01/01 03:51:38;;;;;;;191.87;51.73;;;4.90;77.60;;;;;;5046042;28;20029;-81
2022/01/01 03:54:04;;;;;;;128.70;50.70;;;4.90;77.60;;;;;;5048600;28;20035;-80
2022/01/01 03:56:29;;;;;;;128.50;49.47;;;4.90;77.50;;;;;;5050285;28;20453;-81
2022/01/01 03:58:55;;;;;;;124.40;50.30;;;4.90;77.40;;;;;;5045388;28;20043;-80
2022/01/01 04:01:21;;;;;;;155.47;51.67;;;4.90;77.60;;;;;;5038677;28;20159;-81
2022/01/01 04:03:49;;;;;;;109.43;55.40;;;4.90;77.50;;;;;;5045360;28;20036;-81
2022/01/01 04:06:14;;;;;;;139.40;55.33;;;4.90;77.50;;;;;;5043918;28;20028;-80
2022/01/01 04:08:40;;;;;;;122.57;50.53;;;4.80;77.30;;;;;;5048642;28;20446;-81
2022/01/01 04:11:06;;;;;;;117.07;54.90;;;4.80;77.60;;;;;;5040657;28;20041;-80
2022/01/01 04:13:34;;;;;;;126.43;52.43;;;4.90;77.60;;;;;;5048436;28;20036;-81
2022/01/01 04:16:00;;;;;;;89.30;49.70;;;4.90;77.50;;;;;;5041202;28;20049;-81
2022/01/01 04:18:29;;;;;;;118.53;48.37;;;4.90;77.60;;;;;;5046719;28;20028;-81
2022/01/01 04:20:57;;;;;;;136.77;48.40;;;4.80;77.50;;;;;;5049459;28;20162;-81
2022/01/01 04:23:23;;;;;;;132.90;49.67;;;4.90;77.70;;;;;;5052291;28;20040;-81
2022/01/01 04:25:49;;;;;;;143.70;44.83;;;4.90;77.40;;;;;;5048217;28;20029;-81
2022/01/01 04:28:15;;;;;;;138.70;44.03;;;4.90;77.40;;;;;;5042942;28;20040;-81
2022/01/01 04:30:40;;;;;;;150.47;41.17;;;4.90;77.20;;;;;;5048733;28;20443;-81
2022/01/01 04:33:06;;;;;;;104.00;37.30;;;4.80;77.30;;;;;;5045500;28;20037;-81
2022/01/01 04:35:32;;;;;;;124.43;38.33;;;4.70;77.40;;;;;;5044828;28;20086;-81
2022/01/01 04:37:58;;;;;;;99.73;32.07;;;4.70;77.70;;;;;;5040756;28;20492;-81
2022/01/01 04:40:24;;;;;;;55.23;29.37;;;4.70;77.90;;;;;;5050308;28;20031;-81
2022/01/01 04:42:50;;;;;;;62.10;29.03;;;4.80;77.80;;;;;;5047363;28;20457;-81
2022/01/01 04:45:18;;;;;;;89.97;30.73;;;4.70;77.70;;;;;;5039070;28;20112;-80
2022/01/01 04:47:44;;;;;;;54.37;30.10;;;4.70;77.60;;;;;;5046619;28;20032;-81
2022/01/01 04:50:13;;;;;;;53.07;30.87;;;4.70;77.40;;;;;;5048252;28;20345;-81
2022/01/01 04:52:39;;;;;;;137.33;35.63;;;4.70;77.10;;;;;;5051709;28;20025;-80
2022/01/01 04:55:07;;;;;;;64.43;29.90;;;4.70;77.40;;;;;;5051124;28;20028;-81
2022/01/01 04:57:33;;;;;;;90.47;35.07;;;4.70;77.10;;;;;;5041304;28;20476;-81
2022/01/01 04:59:58;;;;;;;144.07;36.23;;;4.80;77.00;;;;;;5033549;28;20026;-81
2022/01/01 05:02:26;;;;;;;81.63;35.30;;;4.70;76.90;;;;;;5043902;28;20024;-81
2022/01/01 05:04:52;;;;;;;136.03;36.63;;;4.70;77.60;;;;;;5051717;28;20048;-81
2022/01/01 05:07:18;;;;;;;82.03;35.93;;;4.70;76.70;;;;;;5040792;28;20052;-81
2022/01/01 05:09:44;;;;;;;86.10;39.60;;;4.60;77.00;;;;;;5044054;28;20088;-81
2022/01/01 05:12:09;;;;;;;115.80;40.47;;;4.60;77.00;;;;;;5041357;28;20040;-81
2022/01/01 05:14:35;;;;;;;125.67;45.80;;;4.60;77.00;;;;;;5039825;28;20634;-81
2022/01/01 05:17:01;;;;;;;148.23;45.70;;;4.60;77.00;;;;;;5047225;28;20028;-81
2022/01/01 05:19:27;;;;;;;112.80;48.07;;;4.60;76.90;;;;;;5048452;28;20404;-81
2022/01/01 05:21:55;;;;;;;104.97;45.33;;;4.50;76.90;;;;;;5039816;28;20025;-81
2022/01/01 05:24:22;;;;;;;90.33;43.83;;;4.50;77.40;;;;;;5045888;28;20044;-81
2022/01/01 05:26:48;;;;;;;89.27;41.33;;;4.50;77.50;;;;;;5039721;28;20037;-80
2022/01/01 05:29:13;;;;;;;88.27;39.60;;;4.50;77.30;;;;;;5043292;28;20511;-81
2022/01/01 05:31:39;;;;;;;106.83;44.03;;;4.40;77.10;;;;;;5045897;28;20064;-81
2022/01/01 05:34:05;;;;;;;91.40;44.17;;;4.40;77.20;;;;;;5048645;28;20029;-80
2022/01/01 05:36:31;;;;;;;76.33;39.47;;;4.40;76.90;;;;;;5042099;28;20021;-81
2022/01/01 05:38:56;;;;;;;73.40;38.57;;;4.40;76.90;;;;;;5045895;28;20132;-81
2022/01/01 05:41:22;;;;;;;78.77;42.13;;;4.40;76.90;;;;;;5040231;28;20039;-81
2022/01/01 05:43:51;;;;;;;126.70;43.33;;;4.40;77.00;;;;;;5044488;28;20056;-80
2022/01/01 05:46:17;;;;;;;113.47;46.63;;;4.40;77.00;;;;;;5046353;28;20043;-81
2022/01/01 05:48:42;;;;;;;117.23;50.33;;;4.40;76.70;;;;;;5051567;28;20391;-80
2022/01/01 05:51:08;;;;;;;76.80;47.47;;;4.30;76.90;;;;;;5049187;28;20025;-81
2022/01/01 05:53:35;;;;;;;128.63;51.23;;;4.30;77.30;;;;;;5052743;28;20029;-81
2022/01/01 05:56:00;;;;;;;123.37;51.93;;;4.40;77.10;;;;;;5062446;28;20040;-80
2022/01/01 05:58:26;;;;;;;92.83;48.40;;;4.30;77.10;;;;;;5051755;28;20025;-81
2022/01/01 06:00:52;;;;;;;116.43;48.60;;;4.30;77.00;;;;;;5048756;28;20037;-81
2022/01/01 06:03:18;;;;;;;109.70;45.60;;;4.40;77.50;;;;;;5049547;28;20036;-80
2022/01/01 06:05:44;;;;;;;88.87;47.30;;;4.40;77.20;;;;;;5047803;28;20033;-81
2022/01/01 06:08:10;;;;;;;134.73;48.40;;;4.40;77.50;;;;;;5052771;28;20032;-80
2022/01/01 06:10:37;;;;;;;98.20;42.27;;;4.40;77.40;;;;;;5048055;28;20051;-81
2022/01/01 06:13:08;;;;;;;190.97;49.60;;;4.40;77.60;;;;;;5048458;28;20448;-81
2022/01/01 06:15:34;;;;;;;129.57;46.23;;;4.40;77.70;;;;;;5034073;28;20052;-81
2022/01/01 06:18:00;;;;;;;85.97;45.00;;;4.40;77.60;;;;;;5043143;28;20400;-81
2022/01/01 06:20:26;;;;;;;107.50;43.47;;;4.40;77.50;;;;;;5040238;28;20111;-81
2022/01/01 06:22:52;;;;;;;123.10;40.80;;;4.40;77.60;;;;;;5045991;28;20036;-81
2022/01/01 06:25:17;;;;;;;74.93;42.97;;;4.30;77.20;;;;;;5048005;28;20033;-80
2022/01/01 06:27:43;;;;;;;150.70;44.00;;;4.30;77.20;;;;;;5044055;28;20064;-81
2022/01/01 06:30:10;;;;;;;102.07;42.30;;;4.30;77.20;;;;;;5045739;28;20400;-81
2022/01/01 06:32:35;;;;;;;137.37;45.60;;;4.20;77.20;;;;;;5040554;28;20036;-81
2022/01/01 06:35:05;;;;;;;110.47;47.60;;;4.20;77.20;;;;;;5043202;28;20025;-80
2022/01/01 06:37:30;;;;;;;180.40;50.77;;;4.20;77.10;;;;;;5045063;28;20109;-81
2022/01/01 06:39:56;;;;;;;113.70;48.07;;;4.00;77.10;;;;;;5044399;28;20108;-80
2022/01/01 06:42:22;;;;;;;93.40;46.00;;;4.10;77.80;;;;;;5039797;28;20033;-80
2022/01/01 06:44:48;;;;;;;104.03;46.97;;;4.10;78.00;;;;;;5046232;28;20036;-81
2022/01/01 06:47:13;;;;;;;231.20;51.83;;;4.20;77.90;;;;;;5042207;28;20115;-81
2022/01/01 06:49:39;;;;;;;121.60;43.17;;;4.20;77.40;;;;;;5049287;28;20300;-80
2022/01/01 06:52:05;;;;;;;111.23;43.43;;;4.20;77.40;;;;;;5044932;28;20491;-80
2022/01/01 06:54:31;;;;;;;111.60;41.90;;;4.20;77.60;;;;;;5043950;28;20028;-81
2022/01/01 06:56:57;;;;;;;74.30;40.57;;;4.20;77.60;;;;;;5044974;28;20104;-81
2022/01/01 06:59:22;;;;;;;124.60;42.97;;;4.20;77.80;;;;;;5042338;28;20026;-81
2022/01/01 07:01:48;;;;;;;170.57;43.23;;;4.30;77.70;;;;;;5048012;28;20028;-80
2022/01/01 07:04:21;;;;;;;65.53;36.30;;;4.30;77.60;;;;;;5045863;28;20395;-80
2022/01/01 07:06:48;;;;;;;49.33;34.30;;;4.20;77.00;;;;;;5049476;28;20033;-80
2022/01/01 07:09:14;;;;;;;41.03;31.27;;;4.20;77.30;;;;;;5046329;28;20032;-81
2022/01/01 07:11:42;;;;;;;48.60;31.13;;;4.10;77.00;;;;;;5045291;28;20030;-80
2022/01/01 07:14:09;;;;;;;43.63;32.73;;;4.10;77.40;;;;;;5049590;28;20029;-80
2022/01/01 07:16:34;;;;;;;44.30;31.53;;;4.20;77.60;;;;;;5049582;28;20057;-81
2022/01/01 07:19:00;;;;;;;45.70;33.67;;;4.20;77.00;;;;;;5048408;28;20170;-80
2022/01/01 07:21:26;;;;;;;49.27;33.80;;;4.10;77.20;;;;;;5048834;28;20025;-81
2022/01/01 07:23:51;;;;;;;47.37;33.80;;;4.20;77.10;;;;;;5048565;28;20025;-81
2022/01/01 07:26:17;;;;;;;34.87;26.97;;;4.20;76.80;;;;;;5045229;28;20036;-81
2022/01/01 07:28:44;;;;;;;38.20;25.83;;;4.10;76.70;;;;;;5049205;28;20025;-80
2022/01/01 07:31:09;;;;;;;38.87;27.73;;;4.30;77.50;;;;;;5049538;28;20047;-81
2022/01/01 07:33:38;;;;;;;43.50;32.53;;;4.40;76.80;;;;;;5040780;28;20100;-81
2022/01/01 07:36:04;;;;;;;45.73;32.53;;;4.50;76.40;;;;;;5047767;28;20025;-81
2022/01/01 07:38:30;;;;;;;43.03;31.20;;;4.50;76.10;;;;;;5045079;28;20145;-81
2022/01/01 07:40:58;;;;;;;36.97;27.00;;;4.50;76.10;;;;;;5047277;28;20108;-81
2022/01/01 07:43:24;;;;;;;36.03;25.80;;;4.50;76.50;;;;;;5044755;28;20033;-81
2022/01/01 07:45:50;;;;;;;31.93;23.13;;;4.50;76.10;;;;;;5047298;28;20033;-81
2022/01/01 07:48:16;;;;;;;37.83;27.00;;;4.50;76.20;;;;;;5043053;28;20454;-81
2022/01/01 07:50:41;;;;;;;35.93;25.90;;;4.50;75.90;;;;;;5043870;28;20033;-81
2022/01/01 07:53:08;;;;;;;44.87;32.40;;;4.50;76.40;;;;;;5048039;28;20025;-81
2022/01/01 07:55:33;;;;;;;54.57;40.13;;;4.50;75.70;;;;;;5043306;28;20499;-81
2022/01/01 07:57:59;;;;;;;39.80;29.60;;;4.40;75.70;;;;;;5044362;28;20020;-80
2022/01/01 08:00:25;;;;;;;38.73;28.80;;;4.40;76.00;;;;;;5046485;28;20528;-81
2022/01/01 08:02:53;;;;;;;39.40;26.23;;;4.40;76.00;;;;;;5043956;28;20029;-81
2022/01/01 08:05:19;;;;;;;41.67;27.23;;;4.40;76.00;;;;;;5048640;28;20029;-81
2022/01/01 08:07:46;;;;;;;43.60;30.23;;;4.40;75.70;;;;;;5045483;28;20048;-81
2022/01/01 08:10:12;;;;;;;55.50;39.40;;;4.40;76.20;;;;;;5043376;28;20028;-81
2022/01/01 08:12:40;;;;;;;53.77;37.33;;;4.40;75.80;;;;;;5042669;28;20033;-80
2022/01/01 08:15:08;;;;;;;61.00;41.63;;;4.30;76.10;;;;;;5046990;28;20041;-81
2022/01/01 08:17:34;;;;;;;57.77;41.47;;;4.40;76.20;;;;;;5043979;28;20029;-80
2022/01/01 08:20:00;;;;;;;61.17;41.47;;;4.40;76.10;;;;;;5047448;28;20029;-81
2022/01/01 08:22:26;;;;;;;59.33;41.00;;;4.40;75.70;;;;;;5043846;28;20645;-80
2022/01/01 08:24:52;;;;;;;59.20;42.50;;;4.40;76.00;;;;;;5042655;28;20029;-81
2022/01/01 08:27:25;;;;;;;59.93;40.97;;;4.50;76.40;;;;;;5043338;28;20047;-81
2022/01/01 08:29:51;;;;;;;60.10;40.43;;;4.50;76.50;;;;;;5043821;28;20051;-81
2022/01/01 08:32:19;;;;;;;60.40;42.77;;;4.50;75.70;;;;;;5047311;28;20605;-80
2022/01/01 08:34:55;;;;;;;59.80;40.27;;;4.50;75.40;;;;;;5040985;28;20032;-81
2022/01/01 08:37:21;;;;;;;55.60;38.47;;;4.50;75.70;;;;;;5048587;28;20083;-80
2022/01/01 08:39:47;;;;;;;55.83;38.20;;;4.50;75.70;;;;;;5047981;28;20017;-81
2022/01/01 08:42:13;;;;;;;52.03;35.87;;;4.50;75.70;;;;;;5043023;28;20032;-81
2022/01/01 08:44:39;;;;;;;48.50;34.73;;;4.50;75.60;;;;;;5046107;28;20083;-81
2022/01/01 08:47:04;;;;;;;45.40;31.30;;;4.60;76.10;;;;;;5040527;28;20053;-81
2022/01/01 08:49:33;;;;;;;44.73;31.40;;;4.70;76.10;;;;;;5046331;28;20033;-80
2022/01/01 08:51:59;;;;;;;44.27;30.87;;;4.70;76.10;;;;;;5044546;28;20036;-81
2022/01/01 08:54:24;;;;;;;45.30;31.00;;;4.70;76.00;;;;;;5043772;28;20112;-80
2022/01/01 08:56:50;;;;;;;48.90;32.53;;;4.70;76.60;;;;;;5043560;28;20462;-81
2022/01/01 08:59:16;;;;;;;50.27;33.47;;;4.70;76.10;;;;;;5036868;28;20049;-81
2022/01/01 09:01:42;;;;;;;52.50;35.60;;;4.80;76.60;;;;;;5045401;28;20052;-81
2022/01/01 09:04:07;;;;;;;56.20;37.27;;;4.80;76.10;;;;;;5047145;28;20040;-81
2022/01/01 09:06:36;;;;;;;56.00;37.30;;;4.80;75.90;;;;;;5040884;28;20455;-81
2022/01/01 09:09:02;;;;;;;60.97;37.70;;;4.80;75.90;;;;;;5041616;28;20029;-80
2022/01/01 09:11:28;;;;;;;56.80;37.83;;;4.80;76.00;;;;;;5047497;28;20025;-81
2022/01/01 09:13:56;;;;;;;56.13;37.97;;;4.80;76.10;;;;;;5048908;28;20480;-81
2022/01/01 09:16:29;;;;;;;47.67;32.33;;;4.80;76.00;;;;;;5049608;28;20049;-81
2022/01/01 09:18:55;;;;;;;49.40;32.47;;;4.90;76.30;;;;;;5042075;28;20025;-81
2022/01/01 09:21:25;;;;;;;45.87;32.17;;;5.00;76.30;;;;;;5044285;28;20091;-81
2022/01/01 09:23:51;;;;;;;45.57;31.93;;;5.10;76.10;;;;;;5047230;28;20020;-80
2022/01/01 09:26:18;;;;;;;49.40;32.43;;;5.20;76.00;;;;;;5049607;28;20518;-81
2022/01/01 09:28:44;;;;;;;48.60;33.10;;;5.30;75.90;;;;;;5038223;28;20034;-80
2022/01/01 09:31:10;;;;;;;51.13;34.37;;;5.40;75.90;;;;;;5047968;28;20028;-80
2022/01/01 09:33:36;;;;;;;48.30;33.87;;;5.50;76.00;;;;;;5055200;28;20115;-80
2022/01/01 09:36:04;;;;;;;42.77;29.97;;;5.60;75.80;;;;;;5047230;28;20128;-81
2022/01/01 09:38:31;;;;;;;40.93;27.70;;;5.80;75.90;;;;;;5046524;28;20121;-80
2022/01/01 09:40:58;;;;;;;43.97;30.80;;;6.00;75.70;;;;;;5045937;28;20025;-81
2022/01/01 09:43:26;;;;;;;42.67;30.77;;;6.10;75.50;;;;;;5042143;28;20029;-81
2022/01/01 09:46:00;;;;;;;41.97;29.30;;;6.30;75.10;;;;;;5046273;28;20483;-81
2022/01/01 09:48:27;;;;;;;42.20;29.80;;;6.40;74.70;;;;;;5042125;28;20068;-80
2022/01/01 09:50:55;;;;;;;41.00;28.33;;;6.40;74.60;;;;;;5044796;28;20033;-81
2022/01/01 09:53:24;;;;;;;46.07;29.87;;;6.50;74.40;;;;;;5049468;28;20025;-81
2022/01/01 09:55:50;;;;;;;46.47;31.80;;;6.50;74.20;;;;;;5043989;28;20033;-81
2022/01/01 09:58:16;;;;;;;42.27;28.80;;;6.50;74.10;;;;;;5046586;28;20425;-81
2022/01/01 10:00:42;;;;;;;39.80;29.13;;;6.50;74.00;;;;;;5044453;28;20107;-81
2022/01/01 10:03:14;;;;;;;37.50;26.97;;;6.60;74.10;;;;;;5048302;28;20357;-81
2022/01/01 10:06:01;;;;;;;40.03;26.20;;;6.70;74.00;;;;;;5055820;28;20392;-81
2022/01/01 10:08:27;;;;;;;36.47;26.80;;;6.90;73.80;;;;;;5044615;28;20041;-81
2022/01/01 10:10:54;;;;;;;36.63;25.33;;;7.00;73.80;;;;;;5046402;28;20029;-81
2022/01/01 10:13:32;;;;;;;32.00;22.40;;;7.20;73.10;;;;;;5053277;28;20025;-81
2022/01/01 10:16:02;;;;;;;29.07;20.23;;;7.40;72.90;;;;;;5049495;28;20044;-81
2022/01/01 10:18:33;;;;;;;27.60;19.97;;;7.50;72.40;;;;;;5047796;28;20470;-81
2022/01/01 10:21:03;;;;;;;29.30;22.37;;;7.60;72.10;;;;;;5048786;28;20029;-81
2022/01/01 10:23:31;;;;;;;24.33;18.13;;;7.80;72.00;;;;;;5046376;28;20037;-81
2022/01/01 10:29:27;;;;;;;26.07;18.00;;;8.30;70.90;;;;;;5032776;28;20102;-81
2022/01/01 10:31:56;;;;;;;26.60;17.03;;;8.50;70.80;;;;;;5038023;28;20494;-81
2022/01/01 10:34:24;;;;;;;22.27;16.60;;;8.70;70.00;;;;;;5050187;28;20091;-81
2022/01/01 10:36:52;;;;;;;25.67;18.37;;;9.00;69.10;;;;;;5041958;28;20076;-81
2022/01/01 10:39:19;;;;;;;22.17;16.17;;;9.10;68.50;;;;;;5043202;28;20303;-81
2022/01/01 10:41:47;;;;;;;19.77;14.13;;;9.20;67.90;;;;;;5047017;28;20411;-81
2022/01/01 10:44:13;;;;;;;18.40;14.50;;;9.40;67.50;;;;;;5050153;28;20111;-81
2022/01/01 10:46:41;;;;;;;16.43;12.73;;;9.70;66.90;;;;;;5041482;28;20028;-81
2022/01/01 10:52:29;;;;;;;17.03;12.20;;;10.00;65.50;;;;;;5051964;28;20036;-81
2022/01/01 10:54:58;;;;;;;19.23;14.97;;;10.10;65.30;;;;;;5060834;28;20125;-81
2022/01/01 10:57:33;;;;;;;24.80;17.70;;;10.20;65.00;;;;;;5049419;28;20035;-81
2022/01/01 11:00:21;;;;;;;18.20;13.83;;;10.30;65.00;;;;;;5047345;28;20091;-81
2022/01/01 11:02:55;;;;;;;15.87;11.43;;;10.40;64.60;;;;;;5050401;28;20091;-81
2022/01/01 11:05:38;;;;;;;15.03;11.30;;;10.50;64.30;;;;;;5052719;28;20042;-81
2022/01/01 11:08:08;;;;;;;14.37;11.60;;;10.50;63.50;;;;;;5040836;28;20033;-81
2022/01/01 11:10:36;;;;;;;20.40;13.63;;;10.50;64.00;;;;;;5043106;28;20112;-81
2022/01/01 11:13:05;;;;;;;18.83;12.50;;;10.60;63.90;;;;;;5053206;28;20090;-81
2022/01/01 11:15:32;;;;;;;14.93;11.60;;;10.60;63.90;;;;;;5046136;28;20053;-81
2022/01/01 11:17:59;;;;;;;21.20;15.97;;;10.70;63.40;;;;;;5050930;28;20033;-81
2022/01/01 11:20:30;;;;;;;26.70;16.33;;;10.80;63.80;;;;;;5050684;28;20029;-81
2022/01/01 11:22:56;;;;;;;21.00;16.70;;;10.80;64.00;;;;;;5041647;28;20032;-81
2022/01/01 11:25:22;;;;;;;22.23;15.93;;;10.80;63.60;;;;;;5051314;28;20040;-81
2022/01/01 11:27:48;;;;;;;20.77;16.83;;;10.80;63.80;;;;;;5051633;28;20036;-81
2022/01/01 11:30:17;;;;;;;19.87;16.20;;;10.80;64.10;;;;;;5047629;28;20078;-81
2022/01/01 11:33:10;;;;;;;22.60;17.37;;;10.80;63.60;;;;;;5043433;28;20033;-82
2022/01/01 11:35:43;;;;;;;20.58;15.88;;;10.70;63.90;;;;;;5045096;28;20421;-81
2022/01/01 11:38:15;;;;;;;21.90;16.80;;;10.80;64.20;;;;;;5040046;28;20488;-82
2022/01/01 11:40:43;;;;;;;23.67;16.17;;;10.80;63.90;;;;;;5039905;28;20396;-82
2022/01/01 11:43:32;;;;;;;21.27;16.53;;;10.80;63.80;;;;;;5046879;28;20033;-80
2022/01/01 11:46:00;;;;;;;19.43;14.60;;;10.80;63.20;;;;;;5036129;28;20040;-81
2022/01/01 11:48:35;;;;;;;17.00;12.83;;;10.80;63.50;;;;;;5038367;28;20596;-80
2022/01/01 11:51:29;;;;;;;16.90;11.73;;;10.90;63.40;;;;;;5049879;28;20024;-80
2022/01/01 11:54:22;;;;;;;18.53;12.07;;;11.00;63.00;;;;;;5044327;28;20025;-80
2022/01/01 11:56:56;;;;;;;20.70;14.73;;;11.20;62.30;;;;;;5051190;28;20013;-81
2022/01/01 11:59:32;;;;;;;17.57;13.30;;;11.10;62.30;;;;;;5044502;28;20427;-80
2022/01/01 12:02:25;;;;;;;15.73;11.67;;;11.10;62.60;;;;;;5044407;28;20519;-80
2022/01/01 12:05:12;;;;;;;17.95;12.82;;;11.20;62.70;;;;;;5037357;28;20076;-80
2022/01/01 12:07:59;;;;;;;18.50;12.10;;;11.20;62.60;;;;;;5041468;28;20091;-80
2022/01/01 12:10:35;;;;;;;16.83;12.27;;;11.30;62.60;;;;;;5047698;28;20128;-80
2022/01/01 12:13:06;;;;;;;15.87;12.17;;;11.40;62.50;;;;;;5047087;28;20967;-80
2022/01/01 12:15:49;;;;;;;17.47;11.70;;;11.40;62.00;;;;;;5035193;28;20033;-80
2022/01/01 12:18:22;;;;;;;15.53;12.23;;;11.50;61.70;;;;;;5037750;28;20417;-80
2022/01/01 12:20:57;;;;;;;20.27;10.70;;;11.50;61.80;;;;;;5034437;28;20017;-81
2022/01/01 12:23:31;;;;;;;19.60;12.13;;;11.60;62.10;;;;;;5041241;28;20077;-80
2022/01/01 12:25:58;;;;;;;17.67;12.40;;;11.70;61.50;;;;;;5045173;28;20036;-80
2022/01/01 12:28:34;;;;;;;15.83;11.80;;;11.80;61.40;;;;;;5031864;28;20028;-80
2022/01/01 12:31:12;;;;;;;18.90;14.00;;;12.00;61.10;;;;;;5039088;28;20053;-80
2022/01/01 12:33:38;;;;;;;24.10;17.80;;;12.10;60.40;;;;;;5044560;28;20460;-80
2022/01/01 12:36:16;;;;;;;16.93;12.93;;;12.10;60.40;;;;;;5032652;28;20104;-80
2022/01/01 12:39:08;;;;;;;16.27;11.00;;;12.10;59.80;;;;;;5041806;28;20381;-80
2022/01/01 12:41:35;;;;;;;15.27;12.18;;;12.00;59.90;;;;;;5024684;28;20466;-81
2022/01/01 12:44:06;;;;;;;15.00;11.13;;;12.00;59.80;;;;;;5032640;28;20037;-81
2022/01/01 12:46:37;;;;;;;14.80;11.50;;;12.10;59.80;;;;;;5044673;28;20025;-81